3I2

Mason County Airport

Point Pleasant, West Virginia, USA
METAR K3I2 181255Z AUTO 00000KT 7SM CLR 24/23 A3012 RMK AO2 T02430229
Observed Flight Rules
Jun-18 @ 12:55 UTC (19 minutes ago) Visual Flight Rules
Visibility Clouds
7 miles
  • Clear skies
Temperatures Readings
Current 24°C / 75°F
Dewpoint 23°C / 73°F
Humidity 94%
Altimeter 30.12" Hg
Pressure 1020 hPa
Elevation 196
METAR K3I2 181255Z AUTO 00000KT 7SM CLR 24/23 A3012 RMK AO2 T02430229
Observed Flight Rules
Jun-18 @ 12:55 UTC
(19 minutes ago)
VFR
Clouds
  • Clear skies
Temperature Dewpoint
24°C / 75°F 23°C / 73°F
Humidity Altimeter Pressure
94% 30.12" Hg 1020 hPa